sensor_id;sensor_type;location;lat;lon;timestamp;temperature;humidity
69895;DHT22;57172;52.034;5.090;2022-12-07T00:01:13;4.80;80.10
69895;DHT22;57172;52.034;5.090;2022-12-07T00:03:43;4.80;80.30
69895;DHT22;57172;52.034;5.090;2022-12-07T00:06:12;4.90;80.60
69895;DHT22;57172;52.034;5.090;2022-12-07T00:08:39;4.90;80.90
69895;DHT22;57172;52.034;5.090;2022-12-07T00:11:11;5.00;81.10
69895;DHT22;57172;52.034;5.090;2022-12-07T00:13:39;5.00;81.10
69895;DHT22;57172;52.034;5.090;2022-12-07T00:16:12;5.10;81.10
69895;DHT22;57172;52.034;5.090;2022-12-07T00:18:40;5.10;81.10
69895;DHT22;57172;52.034;5.090;2022-12-07T00:21:11;5.10;81.10
69895;DHT22;57172;52.034;5.090;2022-12-07T00:23:38;5.10;81.00
69895;DHT22;57172;52.034;5.090;2022-12-07T00:26:08;5.10;81.00
69895;DHT22;57172;52.034;5.090;2022-12-07T00:28:36;5.10;80.90
69895;DHT22;57172;52.034;5.090;2022-12-07T00:31:05;5.10;80.70
69895;DHT22;57172;52.034;5.090;2022-12-07T00:33:34;5.10;80.50
69895;DHT22;57172;52.034;5.090;2022-12-07T00:36:02;5.10;80.40
69895;DHT22;57172;52.034;5.090;2022-12-07T00:38:31;5.10;80.30
69895;DHT22;57172;52.034;5.090;2022-12-07T00:41:03;5.00;80.20
69895;DHT22;57172;52.034;5.090;2022-12-07T00:43:31;5.00;80.10
69895;DHT22;57172;52.034;5.090;2022-12-07T00:45:58;4.90;80.10
69895;DHT22;57172;52.034;5.090;2022-12-07T00:48:25;4.90;80.10
69895;DHT22;57172;52.034;5.090;2022-12-07T00:50:52;4.80;80.10
69895;DHT22;57172;52.034;5.090;2022-12-07T00:53:19;4.80;80.00
69895;DHT22;57172;52.034;5.090;2022-12-07T00:55:46;4.70;80.00
69895;DHT22;57172;52.034;5.090;2022-12-07T00:58:13;4.70;80.00
69895;DHT22;57172;52.034;5.090;2022-12-07T01:00:42;4.70;80.00
69895;DHT22;57172;52.034;5.090;2022-12-07T01:03:11;4.60;79.90
69895;DHT22;57172;52.034;5.090;2022-12-07T01:05:38;4.60;79.80
69895;DHT22;57172;52.034;5.090;2022-12-07T01:08:06;4.60;79.80
69895;DHT22;57172;52.034;5.090;2022-12-07T01:10:33;4.60;79.80
69895;DHT22;57172;52.034;5.090;2022-12-07T01:13:00;4.50;80.00
69895;DHT22;57172;52.034;5.090;2022-12-07T01:15:26;4.50;80.10
69895;DHT22;57172;52.034;5.090;2022-12-07T01:17:53;4.50;80.30
69895;DHT22;57172;52.034;5.090;2022-12-07T01:20:21;4.50;80.50
69895;DHT22;57172;52.034;5.090;2022-12-07T01:22:48;4.60;80.50
69895;DHT22;57172;52.034;5.090;2022-12-07T01:25:15;4.50;80.50
69895;DHT22;57172;52.034;5.090;2022-12-07T01:27:42;4.50;80.40
69895;DHT22;57172;52.034;5.090;2022-12-07T01:30:10;4.50;80.30
69895;DHT22;57172;52.034;5.090;2022-12-07T01:32:37;4.50;80.20
69895;DHT22;57172;52.034;5.090;2022-12-07T01:35:04;4.50;80.20
69895;DHT22;57172;52.034;5.090;2022-12-07T01:37:38;4.50;80.10
69895;DHT22;57172;52.034;5.090;2022-12-07T01:40:07;4.50;80.00
69895;DHT22;57172;52.034;5.090;2022-12-07T01:42:34;4.50;80.00
69895;DHT22;57172;52.034;5.090;2022-12-07T01:47:59;4.40;80.20
69895;DHT22;57172;52.034;5.090;2022-12-07T01:50:28;4.40;80.30
69895;DHT22;57172;52.034;5.090;2022-12-07T01:52:56;4.40;80.40
69895;DHT22;57172;52.034;5.090;2022-12-07T01:55:25;4.30;80.40
69895;DHT22;57172;52.034;5.090;2022-12-07T01:57:53;4.30;80.40
69895;DHT22;57172;52.034;5.090;2022-12-07T02:00:21;4.30;80.50
69895;DHT22;57172;52.034;5.090;2022-12-07T02:02:55;4.30;80.50
69895;DHT22;57172;52.034;5.090;2022-12-07T02:05:25;4.30;80.40
69895;DHT22;57172;52.034;5.090;2022-12-07T02:07:55;4.30;80.30
69895;DHT22;57172;52.034;5.090;2022-12-07T02:10:27;4.30;80.40
69895;DHT22;57172;52.034;5.090;2022-12-07T02:13:24;4.30;80.60
69895;DHT22;57172;52.034;5.090;2022-12-07T02:16:35;4.30;80.90
69895;DHT22;57172;52.034;5.090;2022-12-07T02:27:47;4.60;81.30
69895;DHT22;57172;52.034;5.090;2022-12-07T02:30:21;4.60;81.30
69895;DHT22;57172;52.034;5.090;2022-12-07T02:33:02;4.60;81.20
69895;DHT22;57172;52.034;5.090;2022-12-07T02:41:31;4.80;81.00
69895;DHT22;57172;52.034;5.090;2022-12-07T02:44:10;4.90;80.70
69895;DHT22;57172;52.034;5.090;2022-12-07T02:46:43;4.90;80.50
69895;DHT22;57172;52.034;5.090;2022-12-07T02:49:36;4.90;80.10
69895;DHT22;57172;52.034;5.090;2022-12-07T02:52:03;4.90;79.90
69895;DHT22;57172;52.034;5.090;2022-12-07T02:54:30;4.90;79.60
69895;DHT22;57172;52.034;5.090;2022-12-07T02:57:23;4.90;79.30
69895;DHT22;57172;52.034;5.090;2022-12-07T03:00:05;4.80;79.00
69895;DHT22;57172;52.034;5.090;2022-12-07T03:18:18;4.30;78.10
69895;DHT22;57172;52.034;5.090;2022-12-07T03:20:48;4.20;78.00
69895;DHT22;57172;52.034;5.090;2022-12-07T03:23:17;4.10;78.10
69895;DHT22;57172;52.034;5.090;2022-12-07T03:25:55;4.10;78.20
69895;DHT22;57172;52.034;5.090;2022-12-07T03:28:35;4.00;78.30
69895;DHT22;57172;52.034;5.090;2022-12-07T03:31:09;4.00;78.30
69895;DHT22;57172;52.034;5.090;2022-12-07T03:33:44;3.90;78.20
69895;DHT22;57172;52.034;5.090;2022-12-07T03:36:29;3.90;78.10
69895;DHT22;57172;52.034;5.090;2022-12-07T03:42:06;3.80;78.50
69895;DHT22;57172;52.034;5.090;2022-12-07T03:44:35;3.80;78.50
69895;DHT22;57172;52.034;5.090;2022-12-07T03:57:26;3.70;79.10
69895;DHT22;57172;52.034;5.090;2022-12-07T03:59:55;3.70;79.40
69895;DHT22;57172;52.034;5.090;2022-12-07T04:02:23;3.70;79.80
69895;DHT22;57172;52.034;5.090;2022-12-07T04:04:51;3.80;80.10
69895;DHT22;57172;52.034;5.090;2022-12-07T04:07:18;3.80;80.30
69895;DHT22;57172;52.034;5.090;2022-12-07T04:09:45;3.90;80.30
69895;DHT22;57172;52.034;5.090;2022-12-07T04:12:12;3.90;80.20
69895;DHT22;57172;52.034;5.090;2022-12-07T04:14:39;3.90;80.10
69895;DHT22;57172;52.034;5.090;2022-12-07T04:17:06;3.90;80.00
69895;DHT22;57172;52.034;5.090;2022-12-07T04:19:33;4.00;79.90
69895;DHT22;57172;52.034;5.090;2022-12-07T04:22:02;4.00;79.90
69895;DHT22;57172;52.034;5.090;2022-12-07T04:24:30;4.00;80.20
69895;DHT22;57172;52.034;5.090;2022-12-07T04:26:57;4.00;80.50
69895;DHT22;57172;52.034;5.090;2022-12-07T04:29:24;4.10;80.60
69895;DHT22;57172;52.034;5.090;2022-12-07T04:31:51;4.10;80.80
69895;DHT22;57172;52.034;5.090;2022-12-07T04:34:19;4.10;80.60
69895;DHT22;57172;52.034;5.090;2022-12-07T04:36:47;4.20;80.50
69895;DHT22;57172;52.034;5.090;2022-12-07T04:39:21;4.10;80.20
69895;DHT22;57172;52.034;5.090;2022-12-07T04:41:49;4.20;79.90
69895;DHT22;57172;52.034;5.090;2022-12-07T04:44:16;4.10;79.70
69895;DHT22;57172;52.034;5.090;2022-12-07T04:46:43;4.10;79.50
69895;DHT22;57172;52.034;5.090;2022-12-07T04:49:12;4.10;79.60
69895;DHT22;57172;52.034;5.090;2022-12-07T04:51:40;4.10;79.70
69895;DHT22;57172;52.034;5.090;2022-12-07T04:54:06;4.10;79.70
69895;DHT22;57172;52.034;5.090;2022-12-07T04:56:34;4.10;79.50
69895;DHT22;57172;52.034;5.090;2022-12-07T04:59:02;4.10;79.30
69895;DHT22;57172;52.034;5.090;2022-12-07T05:01:29;4.00;79.00
69895;DHT22;57172;52.034;5.090;2022-12-07T05:03:56;4.00;78.90
69895;DHT22;57172;52.034;5.090;2022-12-07T05:06:23;3.90;79.00
69895;DHT22;57172;52.034;5.090;2022-12-07T05:08:50;3.90;79.10
69895;DHT22;57172;52.034;5.090;2022-12-07T05:11:17;3.90;79.20
69895;DHT22;57172;52.034;5.090;2022-12-07T05:14:14;3.90;79.10
69895;DHT22;57172;52.034;5.090;2022-12-07T05:16:42;3.90;79.10
69895;DHT22;57172;52.034;5.090;2022-12-07T05:19:10;3.80;79.10
69895;DHT22;57172;52.034;5.090;2022-12-07T05:21:38;3.80;79.30
69895;DHT22;57172;52.034;5.090;2022-12-07T05:24:05;3.80;79.40
69895;DHT22;57172;52.034;5.090;2022-12-07T05:26:33;3.80;79.60
69895;DHT22;57172;52.034;5.090;2022-12-07T05:29:00;3.90;79.70
69895;DHT22;57172;52.034;5.090;2022-12-07T05:31:27;3.90;80.00
69895;DHT22;57172;52.034;5.090;2022-12-07T05:33:54;3.90;80.20
69895;DHT22;57172;52.034;5.090;2022-12-07T05:36:21;3.90;80.30
69895;DHT22;57172;52.034;5.090;2022-12-07T05:38:49;4.00;80.40
69895;DHT22;57172;52.034;5.090;2022-12-07T05:41:18;4.00;80.60
69895;DHT22;57172;52.034;5.090;2022-12-07T05:44:04;4.00;80.60
69895;DHT22;57172;52.034;5.090;2022-12-07T05:46:31;4.10;80.90
69895;DHT22;57172;52.034;5.090;2022-12-07T05:48:58;4.10;81.00
69895;DHT22;57172;52.034;5.090;2022-12-07T05:51:25;4.10;81.00
69895;DHT22;57172;52.034;5.090;2022-12-07T05:53:52;4.20;81.10
69895;DHT22;57172;52.034;5.090;2022-12-07T05:56:19;4.20;81.10
69895;DHT22;57172;52.034;5.090;2022-12-07T05:58:46;4.20;81.10
69895;DHT22;57172;52.034;5.090;2022-12-07T06:01:31;4.30;81.20
69895;DHT22;57172;52.034;5.090;2022-12-07T06:03:58;4.30;81.10
69895;DHT22;57172;52.034;5.090;2022-12-07T06:06:25;4.40;81.10
69895;DHT22;57172;52.034;5.090;2022-12-07T06:08:52;4.40;81.10
69895;DHT22;57172;52.034;5.090;2022-12-07T06:11:19;4.40;81.00
69895;DHT22;57172;52.034;5.090;2022-12-07T06:14:04;4.50;81.00
69895;DHT22;57172;52.034;5.090;2022-12-07T06:16:31;4.50;80.90
69895;DHT22;57172;52.034;5.090;2022-12-07T06:18:58;4.60;80.90
69895;DHT22;57172;52.034;5.090;2022-12-07T06:21:25;4.60;80.80
69895;DHT22;57172;52.034;5.090;2022-12-07T06:23:53;4.60;80.60
69895;DHT22;57172;52.034;5.090;2022-12-07T06:26:20;4.60;80.30
69895;DHT22;57172;52.034;5.090;2022-12-07T06:28:47;4.60;80.00
69895;DHT22;57172;52.034;5.090;2022-12-07T06:31:14;4.60;79.80
69895;DHT22;57172;52.034;5.090;2022-12-07T06:33:42;4.60;79.80
69895;DHT22;57172;52.034;5.090;2022-12-07T06:36:09;4.60;80.00
69895;DHT22;57172;52.034;5.090;2022-12-07T06:38:36;4.60;80.10
69895;DHT22;57172;52.034;5.090;2022-12-07T06:41:03;4.60;80.20
69895;DHT22;57172;52.034;5.090;2022-12-07T06:43:30;4.60;80.20
69895;DHT22;57172;52.034;5.090;2022-12-07T06:45:57;4.60;80.10
69895;DHT22;57172;52.034;5.090;2022-12-07T06:48:24;4.60;80.00
69895;DHT22;57172;52.034;5.090;2022-12-07T06:50:51;4.60;80.00
69895;DHT22;57172;52.034;5.090;2022-12-07T06:53:21;4.50;80.00
69895;DHT22;57172;52.034;5.090;2022-12-07T06:55:49;4.50;79.90
69895;DHT22;57172;52.034;5.090;2022-12-07T06:58:17;4.50;79.90
69895;DHT22;57172;52.034;5.090;2022-12-07T07:00:44;4.40;79.70
69895;DHT22;57172;52.034;5.090;2022-12-07T07:03:11;4.40;79.60
69895;DHT22;57172;52.034;5.090;2022-12-07T07:05:38;4.40;79.40
69895;DHT22;57172;52.034;5.090;2022-12-07T07:08:06;4.40;79.20
69895;DHT22;57172;52.034;5.090;2022-12-07T07:10:49;4.30;79.20
69895;DHT22;57172;52.034;5.090;2022-12-07T07:13:16;4.30;79.30
69895;DHT22;57172;52.034;5.090;2022-12-07T07:15:43;4.30;79.50
69895;DHT22;57172;52.034;5.090;2022-12-07T07:18:10;4.40;79.70
69895;DHT22;57172;52.034;5.090;2022-12-07T07:20:37;4.40;79.80
69895;DHT22;57172;52.034;5.090;2022-12-07T07:23:05;4.40;79.90
69895;DHT22;57172;52.034;5.090;2022-12-07T07:25:32;4.40;79.80
69895;DHT22;57172;52.034;5.090;2022-12-07T07:27:59;4.40;79.60
69895;DHT22;57172;52.034;5.090;2022-12-07T07:30:26;4.40;79.50
69895;DHT22;57172;52.034;5.090;2022-12-07T07:32:58;4.40;79.20
69895;DHT22;57172;52.034;5.090;2022-12-07T07:35:27;4.30;79.10
69895;DHT22;57172;52.034;5.090;2022-12-07T07:37:54;4.30;79.00
69895;DHT22;57172;52.034;5.090;2022-12-07T07:40:21;4.20;79.00
69895;DHT22;57172;52.034;5.090;2022-12-07T07:42:49;4.20;79.10
69895;DHT22;57172;52.034;5.090;2022-12-07T07:45:17;4.20;79.20
69895;DHT22;57172;52.034;5.090;2022-12-07T07:47:44;4.20;79.30
69895;DHT22;57172;52.034;5.090;2022-12-07T07:50:11;4.20;79.30
69895;DHT22;57172;52.034;5.090;2022-12-07T07:52:38;4.20;79.40
69895;DHT22;57172;52.034;5.090;2022-12-07T07:55:05;4.20;79.50
69895;DHT22;57172;52.034;5.090;2022-12-07T07:57:35;4.20;79.70
69895;DHT22;57172;52.034;5.090;2022-12-07T08:00:12;4.20;79.70
69895;DHT22;57172;52.034;5.090;2022-12-07T08:02:39;4.20;79.70
69895;DHT22;57172;52.034;5.090;2022-12-07T08:05:07;4.20;79.80
69895;DHT22;57172;52.034;5.090;2022-12-07T08:07:34;4.20;79.90
69895;DHT22;57172;52.034;5.090;2022-12-07T08:10:03;4.20;80.00
69895;DHT22;57172;52.034;5.090;2022-12-07T08:12:31;4.20;80.10
69895;DHT22;57172;52.034;5.090;2022-12-07T08:14:58;4.20;80.20
69895;DHT22;57172;52.034;5.090;2022-12-07T08:17:25;4.20;80.30
69895;DHT22;57172;52.034;5.090;2022-12-07T08:19:51;4.30;80.30
69895;DHT22;57172;52.034;5.090;2022-12-07T08:22:18;4.30;80.40
69895;DHT22;57172;52.034;5.090;2022-12-07T08:24:45;4.40;80.50
69895;DHT22;57172;52.034;5.090;2022-12-07T08:27:12;4.40;80.60
69895;DHT22;57172;52.034;5.090;2022-12-07T08:29:39;4.50;80.60
69895;DHT22;57172;52.034;5.090;2022-12-07T08:32:06;4.60;80.60
69895;DHT22;57172;52.034;5.090;2022-12-07T08:34:35;4.60;80.60
69895;DHT22;57172;52.034;5.090;2022-12-07T08:37:03;4.70;80.50
69895;DHT22;57172;52.034;5.090;2022-12-07T08:39:30;4.70;80.40
69895;DHT22;57172;52.034;5.090;2022-12-07T08:41:58;4.80;80.80
69895;DHT22;57172;52.034;5.090;2022-12-07T08:44:25;4.90;81.10
69895;DHT22;57172;52.034;5.090;2022-12-07T08:47:02;5.00;81.40
69895;DHT22;57172;52.034;5.090;2022-12-07T08:49:35;5.20;82.40
69895;DHT22;57172;52.034;5.090;2022-12-07T08:52:04;5.40;82.20
69895;DHT22;57172;52.034;5.090;2022-12-07T08:54:33;5.60;81.70
69895;DHT22;57172;52.034;5.090;2022-12-07T08:57:03;5.60;80.90
69895;DHT22;57172;52.034;5.090;2022-12-07T08:59:30;5.60;80.60
69895;DHT22;57172;52.034;5.090;2022-12-07T09:01:57;5.60;80.60
69895;DHT22;57172;52.034;5.090;2022-12-07T09:04:24;5.70;80.40
69895;DHT22;57172;52.034;5.090;2022-12-07T09:06:51;5.70;80.40
69895;DHT22;57172;52.034;5.090;2022-12-07T09:09:18;5.70;80.40
69895;DHT22;57172;52.034;5.090;2022-12-07T09:11:45;5.70;80.20
69895;DHT22;57172;52.034;5.090;2022-12-07T09:14:13;5.70;80.00
69895;DHT22;57172;52.034;5.090;2022-12-07T09:16:40;5.70;79.70
69895;DHT22;57172;52.034;5.090;2022-12-07T09:19:08;5.70;79.90
69895;DHT22;57172;52.034;5.090;2022-12-07T09:21:34;5.70;79.90
69895;DHT22;57172;52.034;5.090;2022-12-07T09:24:02;5.80;80.00
69895;DHT22;57172;52.034;5.090;2022-12-07T09:26:28;5.90;80.50
69895;DHT22;57172;52.034;5.090;2022-12-07T09:28:55;6.10;80.70
69895;DHT22;57172;52.034;5.090;2022-12-07T09:31:22;6.30;80.60
69895;DHT22;57172;52.034;5.090;2022-12-07T09:33:56;6.30;80.10
69895;DHT22;57172;52.034;5.090;2022-12-07T09:36:23;6.40;80.60
69895;DHT22;57172;52.034;5.090;2022-12-07T09:38:50;6.50;81.00
69895;DHT22;57172;52.034;5.090;2022-12-07T09:41:18;6.60;80.60
69895;DHT22;57172;52.034;5.090;2022-12-07T09:43:45;6.70;80.30
69895;DHT22;57172;52.034;5.090;2022-12-07T09:46:15;6.80;80.20
69895;DHT22;57172;52.034;5.090;2022-12-07T09:48:43;6.80;79.80
69895;DHT22;57172;52.034;5.090;2022-12-07T09:51:18;6.90;80.10
69895;DHT22;57172;52.034;5.090;2022-12-07T09:53:52;7.10;79.90
69895;DHT22;57172;52.034;5.090;2022-12-07T09:56:20;7.10;78.40
69895;DHT22;57172;52.034;5.090;2022-12-07T09:58:48;7.00;77.90
69895;DHT22;57172;52.034;5.090;2022-12-07T10:01:18;6.90;77.70
69895;DHT22;57172;52.034;5.090;2022-12-07T10:03:54;6.80;78.00
69895;DHT22;57172;52.034;5.090;2022-12-07T10:06:21;6.90;78.70
69895;DHT22;57172;52.034;5.090;2022-12-07T10:08:48;7.10;82.90
69895;DHT22;57172;52.034;5.090;2022-12-07T10:11:15;7.40;82.10
69895;DHT22;57172;52.034;5.090;2022-12-07T10:13:52;7.60;80.10
69895;DHT22;57172;52.034;5.090;2022-12-07T10:19:27;7.50;77.70
69895;DHT22;57172;52.034;5.090;2022-12-07T10:22:15;7.40;77.30
69895;DHT22;57172;52.034;5.090;2022-12-07T10:24:46;7.50;80.60
69895;DHT22;57172;52.034;5.090;2022-12-07T10:27:22;8.20;87.80
69895;DHT22;57172;52.034;5.090;2022-12-07T10:29:53;9.10;86.90
69895;DHT22;57172;52.034;5.090;2022-12-07T10:34:46;10.00;78.50
69895;DHT22;57172;52.034;5.090;2022-12-07T10:37:19;9.90;76.20
69895;DHT22;57172;52.034;5.090;2022-12-07T10:39:49;9.90;76.90
69895;DHT22;57172;52.034;5.090;2022-12-07T10:42:31;10.20;78.00
69895;DHT22;57172;52.034;5.090;2022-12-07T10:45:15;10.70;78.00
69895;DHT22;57172;52.034;5.090;2022-12-07T10:47:51;10.90;73.10
69895;DHT22;57172;52.034;5.090;2022-12-07T10:53:07;10.60;69.80
69895;DHT22;57172;52.034;5.090;2022-12-07T10:58:47;10.10;68.40
69895;DHT22;57172;52.034;5.090;2022-12-07T11:07:11;9.50;67.90
69895;DHT22;57172;52.034;5.090;2022-12-07T11:10:05;9.20;67.90
69895;DHT22;57172;52.034;5.090;2022-12-07T11:15:24;8.80;69.60
69895;DHT22;57172;52.034;5.090;2022-12-07T11:20:37;8.70;70.40
69895;DHT22;57172;52.034;5.090;2022-12-07T11:25:58;8.50;70.40
69895;DHT22;57172;52.034;5.090;2022-12-07T11:28:52;8.50;70.80
69895;DHT22;57172;52.034;5.090;2022-12-07T11:31:35;8.40;71.40
69895;DHT22;57172;52.034;5.090;2022-12-07T11:34:15;8.50;72.10
69895;DHT22;57172;52.034;5.090;2022-12-07T11:36:48;8.70;72.70
69895;DHT22;57172;52.034;5.090;2022-12-07T11:39:28;8.80;72.80
69895;DHT22;57172;52.034;5.090;2022-12-07T11:42:07;9.10;76.20
69895;DHT22;57172;52.034;5.090;2022-12-07T11:44:44;10.00;81.30
69895;DHT22;57172;52.034;5.090;2022-12-07T11:47:22;10.80;78.20
69895;DHT22;57172;52.034;5.090;2022-12-07T11:50:05;11.50;78.50
69895;DHT22;57172;52.034;5.090;2022-12-07T11:52:45;12.30;74.30
69895;DHT22;57172;52.034;5.090;2022-12-07T11:55:21;12.60;70.00
69895;DHT22;57172;52.034;5.090;2022-12-07T11:58:04;12.40;65.70
69895;DHT22;57172;52.034;5.090;2022-12-07T12:00:32;11.90;64.80
69895;DHT22;57172;52.034;5.090;2022-12-07T12:03:04;11.50;64.40
69895;DHT22;57172;52.034;5.090;2022-12-07T12:05:34;11.20;64.90
69895;DHT22;57172;52.034;5.090;2022-12-07T12:08:27;11.00;66.00
69895;DHT22;57172;52.034;5.090;2022-12-07T12:14:03;11.40;65.40
69895;DHT22;57172;52.034;5.090;2022-12-07T12:17:06;11.10;63.70
69895;DHT22;57172;52.034;5.090;2022-12-07T12:25:34;12.10;72.30
69895;DHT22;57172;52.034;5.090;2022-12-07T12:28:03;13.10;67.80
69895;DHT22;57172;52.034;5.090;2022-12-07T12:30:38;13.30;63.90
69895;DHT22;57172;52.034;5.090;2022-12-07T12:33:13;13.20;62.00
69895;DHT22;57172;52.034;5.090;2022-12-07T12:35:41;13.00;61.50
69895;DHT22;57172;52.034;5.090;2022-12-07T12:38:28;12.70;60.60
69895;DHT22;57172;52.034;5.090;2022-12-07T12:40:58;12.30;59.80
69895;DHT22;57172;52.034;5.090;2022-12-07T12:43:46;11.80;59.80
69895;DHT22;57172;52.034;5.090;2022-12-07T12:54:36;10.50;61.80
69895;DHT22;57172;52.034;5.090;2022-12-07T12:57:17;10.30;62.20
69895;DHT22;57172;52.034;5.090;2022-12-07T13:02:35;10.00;62.90
69895;DHT22;57172;52.034;5.090;2022-12-07T13:10:31;9.40;63.60
69895;DHT22;57172;52.034;5.090;2022-12-07T13:23:30;8.90;64.80
69895;DHT22;57172;52.034;5.090;2022-12-07T13:31:39;9.40;63.80
69895;DHT22;57172;52.034;5.090;2022-12-07T13:36:55;10.30;68.50
69895;DHT22;57172;52.034;5.090;2022-12-07T13:39:24;10.80;66.10
69895;DHT22;57172;52.034;5.090;2022-12-07T13:41:56;11.00;63.70
69895;DHT22;57172;52.034;5.090;2022-12-07T13:44:25;10.80;62.10
69895;DHT22;57172;52.034;5.090;2022-12-07T13:47:13;10.50;60.80
69895;DHT22;57172;52.034;5.090;2022-12-07T13:50:00;9.90;61.30
69895;DHT22;57172;52.034;5.090;2022-12-07T13:52:31;9.40;62.10
69895;DHT22;57172;52.034;5.090;2022-12-07T13:57:26;8.50;63.50
69895;DHT22;57172;52.034;5.090;2022-12-07T13:59:53;8.20;64.40
69895;DHT22;57172;52.034;5.090;2022-12-07T14:02:34;8.00;65.80
69895;DHT22;57172;52.034;5.090;2022-12-07T14:05:22;7.90;66.80
69895;DHT22;57172;52.034;5.090;2022-12-07T14:08:01;7.90;67.80
69895;DHT22;57172;52.034;5.090;2022-12-07T14:10:34;8.00;67.90
69895;DHT22;57172;52.034;5.090;2022-12-07T14:13:04;8.10;68.40
69895;DHT22;57172;52.034;5.090;2022-12-07T14:15:50;8.20;68.60
69895;DHT22;57172;52.034;5.090;2022-12-07T14:21:14;8.40;68.50
69895;DHT22;57172;52.034;5.090;2022-12-07T14:23:42;8.40;67.80
69895;DHT22;57172;52.034;5.090;2022-12-07T14:26:15;8.20;67.70
69895;DHT22;57172;52.034;5.090;2022-12-07T14:28:45;7.90;67.80
69895;DHT22;57172;52.034;5.090;2022-12-07T14:31:15;7.60;68.10
69895;DHT22;57172;52.034;5.090;2022-12-07T14:33:51;7.50;68.40
69895;DHT22;57172;52.034;5.090;2022-12-07T14:36:18;7.40;68.60
69895;DHT22;57172;52.034;5.090;2022-12-07T14:38:45;7.30;68.60
69895;DHT22;57172;52.034;5.090;2022-12-07T14:41:15;7.20;68.80
69895;DHT22;57172;52.034;5.090;2022-12-07T14:44:11;7.10;69.10
69895;DHT22;57172;52.034;5.090;2022-12-07T14:46:58;7.10;69.20
69895;DHT22;57172;52.034;5.090;2022-12-07T14:49:45;7.10;69.30
69895;DHT22;57172;52.034;5.090;2022-12-07T14:52:38;7.10;69.50
69895;DHT22;57172;52.034;5.090;2022-12-07T14:55:30;7.00;69.40
69895;DHT22;57172;52.034;5.090;2022-12-07T14:57:58;6.90;69.50
69895;DHT22;57172;52.034;5.090;2022-12-07T15:00:27;6.90;69.70
69895;DHT22;57172;52.034;5.090;2022-12-07T15:02:54;6.80;69.80
69895;DHT22;57172;52.034;5.090;2022-12-07T15:05:22;6.90;69.80
69895;DHT22;57172;52.034;5.090;2022-12-07T15:07:49;6.80;69.90
69895;DHT22;57172;52.034;5.090;2022-12-07T15:10:19;6.90;69.80
69895;DHT22;57172;52.034;5.090;2022-12-07T15:12:50;6.90;69.70
69895;DHT22;57172;52.034;5.090;2022-12-07T15:15:17;6.80;69.50
69895;DHT22;57172;52.034;5.090;2022-12-07T15:17:44;6.80;69.60
69895;DHT22;57172;52.034;5.090;2022-12-07T15:20:13;6.70;69.60
69895;DHT22;57172;52.034;5.090;2022-12-07T15:22:40;6.70;69.80
69895;DHT22;57172;52.034;5.090;2022-12-07T15:25:09;6.70;69.90
69895;DHT22;57172;52.034;5.090;2022-12-07T15:27:38;6.70;69.80
69895;DHT22;57172;52.034;5.090;2022-12-07T15:30:06;6.60;70.00
69895;DHT22;57172;52.034;5.090;2022-12-07T15:32:33;6.60;70.10
69895;DHT22;57172;52.034;5.090;2022-12-07T15:35:00;6.50;70.20
69895;DHT22;57172;52.034;5.090;2022-12-07T15:37:27;6.50;70.30
69895;DHT22;57172;52.034;5.090;2022-12-07T15:39:54;6.40;70.50
69895;DHT22;57172;52.034;5.090;2022-12-07T15:42:21;6.40;70.70
69895;DHT22;57172;52.034;5.090;2022-12-07T15:44:48;6.40;71.40
69895;DHT22;57172;52.034;5.090;2022-12-07T15:47:33;6.40;71.30
69895;DHT22;57172;52.034;5.090;2022-12-07T15:50:22;6.40;71.40
69895;DHT22;57172;52.034;5.090;2022-12-07T15:52:49;6.30;71.40
69895;DHT22;57172;52.034;5.090;2022-12-07T15:55:16;6.20;71.50
69895;DHT22;57172;52.034;5.090;2022-12-07T15:57:42;6.10;71.70
69895;DHT22;57172;52.034;5.090;2022-12-07T16:00:10;6.10;71.80
69895;DHT22;57172;52.034;5.090;2022-12-07T16:02:37;6.10;71.90
69895;DHT22;57172;52.034;5.090;2022-12-07T16:05:06;6.10;72.00
69895;DHT22;57172;52.034;5.090;2022-12-07T16:07:33;6.00;72.20
69895;DHT22;57172;52.034;5.090;2022-12-07T16:10:00;5.90;72.50
69895;DHT22;57172;52.034;5.090;2022-12-07T16:12:27;5.90;72.70
69895;DHT22;57172;52.034;5.090;2022-12-07T16:14:54;5.90;72.80
69895;DHT22;57172;52.034;5.090;2022-12-07T16:17:20;5.80;72.90
69895;DHT22;57172;52.034;5.090;2022-12-07T16:19:47;5.80;72.90
69895;DHT22;57172;52.034;5.090;2022-12-07T16:22:14;5.80;73.00
69895;DHT22;57172;52.034;5.090;2022-12-07T16:24:41;5.80;72.80
69895;DHT22;57172;52.034;5.090;2022-12-07T16:27:08;5.80;72.70
69895;DHT22;57172;52.034;5.090;2022-12-07T16:29:35;5.90;72.60
69895;DHT22;57172;52.034;5.090;2022-12-07T16:32:02;5.80;72.60
69895;DHT22;57172;52.034;5.090;2022-12-07T16:34:29;5.80;72.50
69895;DHT22;57172;52.034;5.090;2022-12-07T16:36:56;5.80;72.40
69895;DHT22;57172;52.034;5.090;2022-12-07T16:39:32;5.80;72.30
69895;DHT22;57172;52.034;5.090;2022-12-07T16:41:59;5.80;72.30
69895;DHT22;57172;52.034;5.090;2022-12-07T16:44:27;5.80;72.10
69895;DHT22;57172;52.034;5.090;2022-12-07T16:46:54;5.80;72.10
69895;DHT22;57172;52.034;5.090;2022-12-07T16:49:21;5.80;72.20
69895;DHT22;57172;52.034;5.090;2022-12-07T16:51:51;5.80;72.10
69895;DHT22;57172;52.034;5.090;2022-12-07T16:54:38;5.80;72.00
69895;DHT22;57172;52.034;5.090;2022-12-07T16:57:04;5.80;72.00
69895;DHT22;57172;52.034;5.090;2022-12-07T16:59:31;5.80;72.00
69895;DHT22;57172;52.034;5.090;2022-12-07T17:01:58;5.70;72.00
69895;DHT22;57172;52.034;5.090;2022-12-07T17:04:25;5.70;71.90
69895;DHT22;57172;52.034;5.090;2022-12-07T17:06:52;5.70;71.90
69895;DHT22;57172;52.034;5.090;2022-12-07T17:09:19;5.70;71.90
69895;DHT22;57172;52.034;5.090;2022-12-07T17:11:47;5.60;71.90
69895;DHT22;57172;52.034;5.090;2022-12-07T17:14:14;5.60;72.10
69895;DHT22;57172;52.034;5.090;2022-12-07T17:16:59;5.60;72.20
69895;DHT22;57172;52.034;5.090;2022-12-07T17:19:26;5.60;72.20
69895;DHT22;57172;52.034;5.090;2022-12-07T17:21:53;5.60;72.30
69895;DHT22;57172;52.034;5.090;2022-12-07T17:24:20;5.60;72.30
69895;DHT22;57172;52.034;5.090;2022-12-07T17:26:47;5.60;72.30
69895;DHT22;57172;52.034;5.090;2022-12-07T17:29:16;5.60;72.40
69895;DHT22;57172;52.034;5.090;2022-12-07T17:31:44;5.60;72.40
69895;DHT22;57172;52.034;5.090;2022-12-07T17:34:17;5.60;72.50
69895;DHT22;57172;52.034;5.090;2022-12-07T17:36:45;5.60;72.50
69895;DHT22;57172;52.034;5.090;2022-12-07T17:39:16;5.60;72.60
69895;DHT22;57172;52.034;5.090;2022-12-07T17:41:43;5.60;72.70
69895;DHT22;57172;52.034;5.090;2022-12-07T17:44:29;5.60;72.80
69895;DHT22;57172;52.034;5.090;2022-12-07T17:46:56;5.60;72.90
69895;DHT22;57172;52.034;5.090;2022-12-07T17:49:28;5.60;73.00
69895;DHT22;57172;52.034;5.090;2022-12-07T17:51:56;5.50;73.20
69895;DHT22;57172;52.034;5.090;2022-12-07T17:54:42;5.60;73.30
69895;DHT22;57172;52.034;5.090;2022-12-07T17:57:09;5.60;73.50
69895;DHT22;57172;52.034;5.090;2022-12-07T17:59:36;5.60;73.60
69895;DHT22;57172;52.034;5.090;2022-12-07T18:02:03;5.60;73.70
69895;DHT22;57172;52.034;5.090;2022-12-07T18:04:31;5.60;73.70
69895;DHT22;57172;52.034;5.090;2022-12-07T18:06:58;5.60;73.80
69895;DHT22;57172;52.034;5.090;2022-12-07T18:09:25;5.60;73.90